• Join FlightAware (Why Join?)
  • Login
  • US Flag 
04:40PM EST


 

Airport Tracker/Info


-or-


 

Live Flight TrackerFlight Track Log ✈ N81321 ✈ 14-Sep-2013 ✈ KTTN - KFRG

Flight Track Log - Related Links

Times and Time Zones

All times are in EDT time to prevent confusion due to time zone crossing. See the N81321 flight status page for this flight to view local times or setup timezone preferences in your user account.

Time Position Orientation Groundspeed Altitude Reporting Facility
EDT Latitude Longitude Course Direction KTS MPH feet Rate Location/Type
05:19PM 40.2833 -74.8167 323° Northwest 71 82 600  Level Philadelphia TRACON
05:20PM 40.3000 -74.8333 323° Northwest 61 70 1,300 540 Climbing Philadelphia TRACON
05:21PM 40.3167 -74.8500 323° Northwest 69 79 1,800 300 Climbing Philadelphia TRACON
05:23PM 40.3347 -74.7889 69° East  Level Estimated
05:30PM 40.4012 -74.5616 69° East  Level Estimated
05:30PM 40.2167 -74.5667 69° East 128 147 5,000  Level New York TRACON
05:31PM 40.4107 -74.5291 69° East  Level Estimated
05:31PM 40.2167 -74.5167 90° East 126 145 4,900  Level New York TRACON
05:32PM 40.4202 -74.4966 69° East  Level Estimated
05:32PM 40.2000 -74.4833 123° Southeast 124 143 5,000  Level New York TRACON
05:33PM 40.4296 -74.4641 69° East  Level Estimated
05:33PM 40.1833 -74.4333 114° Southeast 125 144 5,000  Level New York TRACON
05:34PM 40.4391 -74.4315 69° East  Level Estimated
05:34PM 40.1833 -74.4000 90° East 124 143 5,000  Level New York TRACON
05:35PM 40.4485 -74.3990 69° East  Level Estimated
05:35PM 40.1833 -74.3500 90° East 121 139 5,000  Level New York TRACON
05:36PM 40.4580 -74.3664 69° East  Level Estimated
05:36PM 40.1833 -74.3167 90° East 112 129 5,000  Level New York TRACON
05:37PM 40.1833 -74.2667 90° East 110 127 5,000  Level New York TRACON
05:38PM 40.2000 -74.2333 57° Northeast 115 132 5,000  Level New York TRACON
05:39PM 40.2000 -74.1833 90° East 119 137 5,000 -60 Level New York TRACON
05:40PM 40.2000 -74.1500 90° East 119 137 4,900 -60 Descending New York TRACON
05:41PM 40.2000 -74.1000 90° East 118 136 4,900  Level New York TRACON
05:42PM 40.2333 -74.0833 21° North 110 127 5,000  Climbing New York TRACON
05:43PM 40.2500 -74.0500 57° Northeast 105 121 5,000  Level New York TRACON
05:44PM 40.2667 -74.0333 37° Northeast 105 121 5,000  Level New York TRACON
05:45PM 40.3000 -74.0167 21° North 103 119 5,000  Level New York TRACON
05:46PM 40.3167 -74.0000 37° Northeast 105 121 5,000  Level New York TRACON
05:47PM 40.3500 -73.9833 21° North 105 121 5,000  Level New York TRACON
05:48PM 40.3667 -73.9667 37° Northeast 105 121 5,000  Level New York TRACON
05:49PM 40.4000 -73.9333 37° Northeast 104 120 5,000  Level New York TRACON
05:50PM 40.4333 -73.9167 21° North 103 119 5,000  Level New York TRACON
05:51PM 40.4500 -73.9000 37° Northeast 105 121 5,000  Level New York TRACON
05:52PM 40.4833 -73.8833 21° North 104 120 5,000  Level New York TRACON
05:53PM 40.5000 -73.8667 37° Northeast 107 123 5,000  Level New York TRACON
05:54PM 40.5333 -73.8500 21° North 104 120 5,000  Level New York TRACON
05:55PM 40.5500 -73.8333 37° Northeast 104 120 5,000  Level New York TRACON
05:56PM 40.5833 -73.8000 37° Northeast 114 131 5,000 -60 Level New York TRACON
05:57PM 40.5833 -73.7667 90° East 121 139 4,900 -300 Descending New York TRACON
05:58PM 40.6000 -73.7167 66° East 117 135 4,500 -540 Descending New York TRACON
05:59PM 40.6000 -73.6833 90° East 127 146 3,900 -600 Descending New York TRACON
06:00PM 40.6000 -73.6333 90° East 125 144 3,300 -480 Descending New York TRACON
06:01PM 40.6000 -73.5833 90° East 126 145 3,000 -360 Descending New York TRACON
06:02PM 40.6000 -73.5500 90° East 123 142 2,600 -540 Descending New York TRACON
06:03PM 40.6167 -73.5167 57° Northeast 118 136 2,000 -360 Descending New York TRACON
06:04PM 40.6333 -73.4833 57° Northeast 103 119 1,900 -300 Descending New York TRACON
06:05PM 40.6500 -73.4667 37° Northeast 108 124 1,500 -420 Descending New York TRACON
06:06PM 40.6667 -73.4333 57° Northeast 95 109 1,100 -300 Descending New York TRACON
06:07PM 40.6833 -73.4000 57° Northeast 90 104 900 -120 Descending New York TRACON
06:08PM 40.6833 -73.3667 90° East 99 114 900 -180 Level New York TRACON
06:09PM 40.7167 -73.3833 339° North 84 97 600 -300 Descending New York TRACON
06:11PM 40.7288 -73.4134 263° West  Level Estimated
06:18PM 40.7288 -73.4134 247° West  Level Estimated
06:19PM 40.7288 -73.4134 70° East  Level Estimated